createdAt,value
2018-10-07T00:00:50.927Z,6.47
2018-10-07T00:03:18.064Z,6.93
2018-10-07T00:05:46.535Z,8.47
2018-10-07T00:08:13.683Z,6.27
2018-10-07T00:10:41.190Z,4.30
2018-10-07T00:13:08.334Z,6.80
2018-10-07T00:15:35.506Z,6.90
2018-10-07T00:18:02.922Z,6.53
2018-10-07T00:20:30.057Z,5.77
2018-10-07T00:22:57.569Z,5.87
2018-10-07T00:25:24.724Z,7.17
2018-10-07T00:27:52.178Z,5.73
2018-10-07T00:30:19.362Z,3.93
2018-10-07T00:32:46.824Z,13.20
2018-10-07T00:35:13.984Z,8.97
2018-10-07T00:37:42.351Z,4.50
2018-10-07T00:40:09.508Z,4.50
2018-10-07T00:42:36.647Z,6.53
2018-10-07T00:45:04.143Z,4.13
2018-10-07T00:47:31.292Z,5.07
2018-10-07T00:49:58.798Z,9.83
2018-10-07T00:52:26.001Z,7.10
2018-10-07T00:54:53.448Z,8.17
2018-10-07T00:57:20.644Z,4.27
2018-10-07T00:59:48.127Z,5.33
2018-10-07T01:02:15.278Z,5.27
2018-10-07T01:04:42.771Z,6.77
2018-10-07T01:07:09.923Z,6.73
2018-10-07T01:09:37.049Z,5.00
2018-10-07T01:12:04.442Z,5.10
2018-10-07T01:14:31.604Z,6.07
2018-10-07T01:16:59.048Z,5.40
2018-10-07T01:19:26.238Z,7.67
2018-10-07T01:21:53.662Z,5.67
2018-10-07T01:24:20.798Z,7.00
2018-10-07T01:26:48.197Z,9.27
2018-10-07T01:29:15.355Z,6.97
2018-10-07T01:31:42.778Z,11.73
2018-10-07T01:34:09.929Z,6.60
2018-10-07T01:36:37.091Z,9.50
2018-10-07T01:39:07.303Z,8.87
2018-10-07T01:41:34.398Z,6.47
2018-10-07T01:44:01.884Z,7.90
2018-10-07T01:46:29.042Z,8.10
2018-10-07T01:48:56.488Z,4.90
2018-10-07T01:51:23.601Z,5.70
2018-10-07T01:53:52.066Z,4.33
2018-10-07T01:56:19.211Z,11.03
2018-10-07T01:58:46.536Z,4.10
2018-10-07T02:01:13.747Z,5.50
2018-10-07T02:03:41.196Z,6.47
2018-10-07T02:06:08.343Z,18.20
2018-10-07T02:08:35.442Z,17.57
2018-10-07T02:11:02.846Z,21.53
2018-10-07T02:13:29.984Z,17.83
2018-10-07T02:15:57.451Z,13.33
2018-10-07T02:18:24.597Z,6.60
2018-10-07T02:20:52.052Z,8.07
2018-10-07T02:23:19.202Z,6.93
2018-10-07T02:25:47.280Z,8.77
2018-10-07T02:28:14.453Z,10.80
2018-10-07T02:30:41.876Z,6.60
2018-10-07T02:33:09.037Z,8.87
2018-10-07T02:35:36.176Z,4.77
2018-10-07T02:38:03.639Z,5.57
2018-10-07T02:40:30.800Z,7.37
2018-10-07T02:42:58.218Z,6.90
2018-10-07T02:45:32.106Z,5.53
2018-10-07T02:47:59.369Z,7.73
2018-10-07T02:50:26.516Z,10.90
2018-10-07T02:52:55.356Z,9.43
2018-10-07T02:55:25.606Z,4.00
2018-10-07T02:57:54.250Z,5.53
2018-10-07T03:00:21.415Z,5.33
2018-10-07T03:02:49.278Z,5.97
2018-10-07T03:05:16.431Z,6.33
2018-10-07T03:07:43.871Z,6.03
2018-10-07T03:10:11.401Z,4.03
2018-10-07T03:12:38.589Z,6.77
2018-10-07T03:15:05.887Z,4.60
2018-10-07T03:17:33.295Z,8.80
2018-10-07T03:20:00.652Z,5.50
2018-10-07T03:22:27.831Z,5.07
2018-10-07T03:24:55.237Z,8.00
2018-10-07T03:27:22.784Z,7.63
2018-10-07T03:29:50.099Z,5.30
2018-10-07T03:32:17.224Z,6.53
2018-10-07T03:34:44.638Z,5.90
2018-10-07T03:37:11.775Z,9.27
2018-10-07T03:39:39.203Z,5.50
2018-10-07T03:42:06.560Z,7.60
2018-10-07T03:44:33.722Z,7.37
2018-10-07T03:47:01.117Z,5.83
2018-10-07T03:49:28.262Z,6.60
2018-10-07T03:51:56.279Z,6.57
2018-10-07T03:54:23.472Z,5.90
2018-10-07T03:56:50.912Z,5.40
2018-10-07T03:59:18.061Z,5.47
2018-10-07T04:01:46.147Z,6.00
2018-10-07T04:04:13.290Z,9.60
2018-10-07T04:06:40.717Z,7.43
2018-10-07T04:09:09.463Z,10.33
2018-10-07T04:11:36.803Z,12.23
2018-10-07T04:14:04.342Z,10.17
2018-10-07T04:16:31.466Z,9.87
2018-10-07T04:18:58.888Z,12.77
2018-10-07T04:21:26.017Z,7.80
2018-10-07T04:23:53.638Z,9.87
2018-10-07T04:26:20.820Z,8.37
2018-10-07T04:28:48.298Z,10.17
2018-10-07T04:31:15.429Z,12.47
2018-10-07T04:33:42.869Z,9.53
2018-10-07T04:36:09.999Z,8.40
2018-10-07T04:38:37.677Z,6.60
2018-10-07T04:41:05.266Z,7.67
2018-10-07T04:43:32.395Z,5.93
2018-10-07T04:45:59.823Z,8.03
2018-10-07T04:48:27.001Z,13.77
2018-10-07T04:50:54.467Z,10.93
2018-10-07T04:53:21.582Z,10.60
2018-10-07T04:55:49.101Z,7.73
2018-10-07T04:58:16.212Z,6.33
2018-10-07T05:00:43.961Z,12.10
2018-10-07T05:03:11.098Z,5.37
2018-10-07T05:05:38.603Z,8.33
2018-10-07T05:08:06.469Z,7.23
2018-10-07T05:10:45.239Z,8.43
2018-10-07T05:13:14.592Z,8.07
2018-10-07T05:15:42.332Z,6.03
2018-10-07T05:18:10.064Z,9.03
2018-10-07T05:20:37.611Z,6.07
2018-10-07T05:23:05.127Z,7.10
2018-10-07T05:25:32.299Z,8.37
2018-10-07T05:27:59.858Z,12.97
2018-10-07T05:30:27.074Z,7.23
2018-10-07T05:32:54.532Z,9.97
2018-10-07T05:35:21.881Z,7.53
2018-10-07T05:37:49.315Z,10.93
2018-10-07T05:40:16.427Z,8.87
2018-10-07T05:42:43.958Z,16.03
2018-10-07T05:45:13.347Z,5.60
2018-10-07T05:47:41.000Z,10.37
2018-10-07T05:50:08.189Z,7.43
2018-10-07T05:52:35.306Z,6.77
2018-10-07T05:55:02.804Z,10.33
2018-10-07T05:57:30.180Z,11.23
2018-10-07T06:00:01.006Z,6.77
2018-10-07T06:02:28.175Z,9.57
2018-10-07T06:04:55.963Z,7.73
2018-10-07T06:07:23.936Z,11.33
2018-10-07T06:09:51.343Z,10.23
2018-10-07T06:12:18.510Z,7.47
2018-10-07T06:14:57.377Z,8.17
2018-10-07T06:17:24.582Z,10.10
2018-10-07T06:19:52.084Z,9.83
2018-10-07T06:22:19.407Z,11.20
2018-10-07T06:24:46.840Z,14.53
2018-10-07T06:27:14.026Z,16.27
2018-10-07T06:29:41.586Z,10.30
2018-10-07T06:32:08.723Z,13.03
2018-10-07T06:34:35.888Z,9.40
2018-10-07T06:37:03.439Z,9.13
2018-10-07T06:39:30.668Z,10.17
2018-10-07T06:41:58.234Z,11.33
2018-10-07T06:44:25.413Z,7.83
2018-10-07T06:46:52.914Z,7.87
2018-10-07T06:49:20.341Z,9.83
2018-10-07T06:51:48.008Z,8.03
2018-10-07T06:54:15.154Z,6.07
2018-10-07T06:56:42.702Z,14.03
2018-10-07T06:59:09.976Z,9.83
2018-10-07T07:01:37.576Z,15.17
2018-10-07T07:04:05.094Z,7.13
2018-10-07T07:06:32.292Z,8.93
2018-10-07T07:08:59.700Z,9.63
2018-10-07T07:11:26.852Z,8.63
2018-10-07T07:13:54.213Z,8.57
2018-10-07T07:16:21.376Z,11.50
2018-10-07T07:18:48.652Z,6.50
2018-10-07T07:21:15.779Z,13.40
2018-10-07T07:23:43.047Z,9.83
2018-10-07T07:26:10.507Z,11.57
2018-10-07T07:28:37.643Z,10.33
2018-10-07T07:31:04.790Z,7.60
2018-10-07T07:33:31.928Z,15.03
2018-10-07T07:36:00.011Z,9.63
2018-10-07T07:38:27.356Z,10.57
2018-10-07T07:40:54.503Z,14.97
2018-10-07T07:43:21.692Z,13.10
2018-10-07T07:45:48.889Z,11.10
2018-10-07T07:48:16.087Z,11.17
2018-10-07T07:50:43.343Z,16.03
2018-10-07T07:53:10.495Z,15.37
2018-10-07T07:55:37.652Z,10.40
2018-10-07T07:58:04.829Z,20.30
2018-10-07T08:00:31.992Z,10.40
2018-10-07T08:02:59.119Z,16.33
2018-10-07T08:05:26.250Z,12.77
2018-10-07T08:07:53.403Z,15.10
2018-10-07T08:10:20.655Z,14.90
2018-10-07T08:12:47.809Z,13.57
2018-10-07T08:15:14.947Z,17.23
2018-10-07T08:17:42.138Z,20.23
2018-10-07T08:20:09.293Z,18.93
2018-10-07T08:22:36.431Z,17.57
2018-10-07T08:25:03.598Z,14.60
2018-10-07T08:27:30.731Z,17.10
2018-10-07T08:29:57.881Z,17.60
2018-10-07T08:32:25.007Z,21.83
2018-10-07T08:34:52.136Z,22.87
2018-10-07T08:37:19.303Z,22.57
2018-10-07T08:39:46.438Z,33.23
2018-10-07T08:42:13.607Z,26.53
2018-10-07T08:44:40.777Z,28.53
2018-10-07T08:47:07.884Z,26.57
2018-10-07T08:49:35.028Z,29.33
2018-10-07T08:52:02.179Z,26.27
2018-10-07T08:54:29.367Z,29.73
2018-10-07T08:56:56.502Z,31.33
2018-10-07T08:59:23.657Z,32.80
2018-10-07T09:01:50.815Z,29.03
2018-10-07T09:04:17.945Z,29.83
2018-10-07T09:06:45.086Z,27.43
2018-10-07T09:09:12.212Z,33.00
2018-10-07T09:11:39.800Z,32.53
2018-10-07T09:14:06.980Z,31.20
2018-10-07T09:16:34.126Z,39.10
2018-10-07T09:19:01.254Z,34.70
2018-10-07T09:21:28.380Z,36.13
2018-10-07T09:23:55.671Z,36.20
2018-10-07T09:26:22.818Z,37.17
2018-10-07T09:28:50.004Z,30.80
2018-10-07T09:31:17.164Z,34.40
2018-10-07T09:33:44.292Z,36.43
2018-10-07T09:36:11.411Z,34.50
2018-10-07T09:38:38.532Z,39.93
2018-10-07T09:41:05.755Z,35.40
2018-10-07T09:43:32.889Z,40.47
2018-10-07T09:46:00.053Z,44.07
2018-10-07T09:48:27.231Z,40.17
2018-10-07T09:50:54.372Z,38.80
2018-10-07T09:53:21.536Z,36.17
2018-10-07T09:55:48.743Z,41.60
2018-10-07T09:58:15.868Z,41.77
2018-10-07T10:00:43.082Z,34.73
2018-10-07T10:03:11.282Z,37.90
2018-10-07T10:05:38.462Z,40.63
2018-10-07T10:08:05.903Z,38.07
2018-10-07T10:10:33.077Z,39.57
2018-10-07T10:13:00.253Z,37.07
2018-10-07T10:15:27.416Z,42.63
2018-10-07T10:17:59.586Z,41.20
2018-10-07T10:21:02.218Z,37.87
2018-10-07T10:23:47.298Z,34.03
2018-10-07T10:27:21.306Z,39.37
2018-10-07T10:29:50.004Z,36.30
2018-10-07T10:32:28.490Z,39.80
2018-10-07T10:35:10.015Z,39.23
2018-10-07T10:38:48.311Z,41.83
2018-10-07T10:41:20.602Z,39.47
2018-10-07T10:43:54.956Z,41.23
2018-10-07T10:46:36.902Z,40.50
2018-10-07T10:49:11.888Z,36.43
2018-10-07T10:51:51.116Z,37.60
2018-10-07T10:54:24.333Z,33.00
2018-10-07T10:57:01.395Z,31.20
2018-10-07T11:00:52.808Z,33.77
2018-10-07T11:03:32.015Z,31.77
2018-10-07T11:06:09.843Z,35.07
2018-10-07T11:08:44.830Z,28.83
2018-10-07T11:11:21.399Z,27.03
2018-10-07T11:13:57.619Z,30.30
2018-10-07T11:17:03.942Z,30.83
2018-10-07T11:19:39.199Z,33.03
2018-10-07T11:22:16.986Z,28.00
2018-10-07T11:24:53.976Z,31.77
2018-10-07T11:28:29.392Z,29.10
2018-10-07T11:31:15.943Z,29.97
2018-10-07T11:33:51.754Z,28.93
2018-10-07T11:38:32.375Z,24.23
2018-10-07T11:41:04.310Z,24.60
2018-10-07T11:43:43.571Z,27.63
2018-10-07T11:46:16.018Z,22.87
2018-10-07T11:48:50.399Z,23.90
2018-10-07T11:51:26.899Z,24.23
2018-10-07T11:53:56.720Z,20.47
2018-10-07T11:56:23.861Z,23.00
2018-10-07T11:58:51.070Z,18.60
2018-10-07T12:01:18.223Z,18.93
2018-10-07T12:03:45.351Z,19.30
2018-10-07T12:06:12.490Z,16.97
2018-10-07T12:08:39.682Z,12.93
2018-10-07T12:11:06.918Z,12.97
2018-10-07T12:13:34.035Z,10.30
2018-10-07T12:16:01.183Z,9.63
2018-10-07T12:18:28.320Z,12.13
2018-10-07T12:20:55.451Z,11.27
2018-10-07T12:23:22.591Z,9.73
2018-10-07T12:25:49.735Z,11.63
2018-10-07T12:28:16.859Z,8.73
2018-10-07T12:30:44.008Z,8.73
2018-10-07T12:33:11.144Z,6.87
2018-10-07T12:35:38.307Z,12.80
2018-10-07T12:38:05.446Z,11.70
2018-10-07T12:40:32.674Z,8.87
2018-10-07T12:42:59.880Z,7.60
2018-10-07T12:45:27.040Z,7.50
2018-10-07T12:47:54.191Z,7.90
2018-10-07T12:50:21.487Z,6.17
2018-10-07T12:52:49.295Z,7.10
2018-10-07T12:55:16.429Z,8.40
2018-10-07T12:57:43.592Z,8.80
2018-10-07T13:00:10.751Z,6.80
2018-10-07T13:02:37.906Z,8.53
2018-10-07T13:05:05.405Z,6.93
2018-10-07T13:07:32.539Z,6.73
2018-10-07T13:09:59.667Z,5.77
2018-10-07T13:12:26.817Z,6.03
2018-10-07T13:14:53.961Z,6.80
2018-10-07T13:17:21.090Z,7.37
2018-10-07T13:19:48.272Z,5.20
2018-10-07T13:22:15.408Z,3.87
2018-10-07T13:24:42.559Z,4.67
2018-10-07T13:27:09.790Z,3.77
2018-10-07T13:29:36.971Z,4.07
2018-10-07T13:32:04.147Z,4.53
2018-10-07T13:34:31.287Z,4.03
2018-10-07T13:36:58.428Z,6.53
2018-10-07T13:39:25.591Z,5.80
2018-10-07T13:41:52.712Z,4.07
2018-10-07T13:44:19.861Z,3.03
2018-10-07T13:46:47.019Z,3.17
2018-10-07T13:49:14.218Z,5.90
2018-10-07T13:51:41.380Z,3.80
2018-10-07T13:54:08.647Z,3.40
2018-10-07T13:56:35.807Z,4.43
2018-10-07T13:59:03.110Z,3.17
2018-10-07T14:01:30.287Z,3.20
2018-10-07T14:03:57.524Z,5.17
2018-10-07T14:06:24.643Z,3.20
2018-10-07T14:08:51.807Z,5.23
2018-10-07T14:11:18.935Z,3.20
2018-10-07T14:13:46.070Z,6.53
2018-10-07T14:16:13.236Z,5.17
2018-10-07T14:18:40.401Z,4.10
2018-10-07T14:21:07.547Z,6.77
2018-10-07T14:23:34.685Z,6.23
2018-10-07T14:26:01.848Z,10.17
2018-10-07T14:28:28.967Z,4.87
2018-10-07T14:30:56.079Z,6.20
2018-10-07T14:33:23.273Z,5.17
2018-10-07T14:35:50.381Z,6.63
2018-10-07T14:38:17.499Z,4.67
2018-10-07T14:40:44.621Z,5.93
2018-10-07T14:43:11.815Z,6.43
2018-10-07T14:45:38.951Z,5.20
2018-10-07T14:48:06.091Z,6.30
2018-10-07T14:50:33.234Z,5.30
2018-10-07T14:53:00.364Z,5.43
2018-10-07T14:55:27.472Z,7.67
2018-10-07T14:57:54.595Z,5.73
2018-10-07T15:00:21.730Z,4.50
2018-10-07T15:02:48.874Z,5.13
2018-10-07T15:05:16.011Z,6.40
2018-10-07T15:07:49.919Z,5.67
2018-10-07T15:10:17.171Z,7.07
2018-10-07T15:12:44.301Z,3.73
2018-10-07T15:15:11.459Z,5.67
2018-10-07T15:17:38.626Z,5.70
2018-10-07T15:20:05.920Z,4.37
2018-10-07T15:22:33.067Z,6.33
2018-10-07T15:25:00.197Z,5.50
2018-10-07T15:27:27.352Z,4.63
2018-10-07T15:29:54.529Z,5.13
2018-10-07T15:32:21.646Z,4.30
2018-10-07T15:34:48.799Z,5.33
2018-10-07T15:37:15.959Z,3.80
2018-10-07T15:39:43.091Z,4.03
2018-10-07T15:42:10.222Z,4.07
2018-10-07T15:44:37.340Z,5.07
2018-10-07T15:47:04.524Z,4.90
2018-10-07T15:49:31.639Z,3.67
2018-10-07T15:52:05.591Z,3.60
2018-10-07T15:54:32.751Z,3.93
2018-10-07T15:56:59.912Z,2.27
2018-10-07T15:59:27.043Z,4.93
2018-10-07T16:01:54.301Z,3.83
2018-10-07T16:04:21.647Z,2.50
2018-10-07T16:06:48.763Z,2.80
2018-10-07T16:09:15.883Z,2.93
2018-10-07T16:11:43.024Z,2.43
2018-10-07T16:14:10.184Z,2.73
2018-10-07T16:16:37.308Z,3.10
2018-10-07T16:19:04.475Z,1.57
2018-10-07T16:21:31.620Z,4.00
2018-10-07T16:23:58.773Z,2.30
2018-10-07T16:26:25.981Z,2.20
2018-10-07T16:28:53.047Z,2.50
2018-10-07T16:31:20.211Z,3.53
2018-10-07T16:33:47.353Z,2.50
2018-10-07T16:36:14.511Z,3.03
2018-10-07T16:38:41.703Z,3.50
2018-10-07T16:41:08.829Z,2.30
2018-10-07T16:43:36.051Z,2.30
2018-10-07T16:46:03.262Z,2.37
2018-10-07T16:48:30.519Z,1.97
2018-10-07T16:50:57.692Z,2.23
2018-10-07T16:53:24.855Z,2.57
2018-10-07T16:55:52.067Z,2.43
2018-10-07T16:58:19.254Z,2.13
2018-10-07T17:00:46.556Z,2.07
2018-10-07T17:03:13.726Z,2.63
2018-10-07T17:05:40.963Z,2.10
2018-10-07T17:08:08.189Z,3.10
2018-10-07T17:10:35.376Z,2.23
2018-10-07T17:13:02.802Z,3.23
2018-10-07T17:15:29.951Z,1.83
2018-10-07T17:17:57.176Z,1.47
2018-10-07T17:20:24.911Z,1.83
2018-10-07T17:22:52.283Z,1.67
2018-10-07T17:25:19.584Z,3.07
2018-10-07T17:27:46.753Z,1.43
2018-10-07T17:30:14.008Z,1.60
2018-10-07T17:32:41.279Z,3.33
2018-10-07T17:35:08.420Z,1.77
2018-10-07T17:37:35.623Z,1.97
2018-10-07T17:40:02.914Z,2.07
2018-10-07T17:42:30.178Z,1.37
2018-10-07T17:44:57.386Z,1.23
2018-10-07T17:47:24.639Z,1.10
2018-10-07T17:49:51.924Z,2.00
2018-10-07T17:52:19.062Z,1.23
2018-10-07T17:54:46.294Z,1.73
2018-10-07T17:57:13.516Z,1.87
2018-10-07T17:59:40.766Z,2.60
2018-10-07T18:02:08.049Z,5.50
2018-10-07T18:04:35.235Z,1.80
2018-10-07T18:07:02.516Z,1.83
2018-10-07T18:09:29.821Z,2.47
2018-10-07T18:11:57.039Z,1.63
2018-10-07T18:14:24.259Z,1.47
2018-10-07T18:16:51.548Z,2.07
2018-10-07T18:19:18.902Z,1.93
2018-10-07T18:21:46.154Z,1.60
2018-10-07T18:24:13.345Z,1.40
2018-10-07T18:26:40.601Z,9.77
2018-10-07T18:29:08.019Z,2.93
2018-10-07T18:31:35.275Z,1.80
2018-10-07T18:34:02.577Z,2.50
2018-10-07T18:36:29.719Z,1.60
2018-10-07T18:38:56.938Z,1.60
2018-10-07T18:41:24.436Z,1.20
2018-10-07T18:43:51.694Z,1.17
2018-10-07T18:46:18.895Z,1.17
2018-10-07T18:48:46.147Z,1.10
2018-10-07T18:51:13.297Z,4.67
2018-10-07T18:53:40.555Z,4.97
2018-10-07T18:56:07.829Z,1.10
2018-10-07T18:58:35.308Z,2.07
2018-10-07T19:01:03.104Z,2.03
2018-10-07T19:03:30.310Z,3.27
2018-10-07T19:05:57.484Z,2.27
2018-10-07T19:08:24.693Z,1.23
2018-10-07T19:10:51.878Z,2.37
2018-10-07T19:13:19.113Z,0.90
2018-10-07T19:15:46.271Z,2.23
2018-10-07T19:18:13.388Z,1.37
2018-10-07T19:20:40.562Z,1.67
2018-10-07T19:23:07.768Z,1.33
2018-10-07T19:25:34.937Z,1.23
2018-10-07T19:28:02.184Z,4.27
2018-10-07T19:30:29.341Z,1.67
2018-10-07T19:32:56.561Z,2.73
2018-10-07T19:35:23.796Z,1.27
2018-10-07T19:37:50.967Z,3.47
2018-10-07T19:40:18.265Z,1.93
2018-10-07T19:42:45.569Z,1.20
2018-10-07T19:45:12.845Z,1.30
2018-10-07T19:47:40.011Z,2.03
2018-10-07T19:50:07.184Z,2.10
2018-10-07T19:52:34.365Z,4.50
2018-10-07T19:55:01.544Z,1.83
2018-10-07T19:57:28.801Z,2.73
2018-10-07T19:59:56.007Z,2.23
2018-10-07T20:02:23.355Z,3.10
2018-10-07T20:04:50.561Z,2.97
2018-10-07T20:07:17.708Z,1.57
2018-10-07T20:09:44.937Z,6.13
2018-10-07T20:12:12.100Z,2.47
2018-10-07T20:14:39.364Z,2.43
2018-10-07T20:17:06.636Z,3.60
2018-10-07T20:19:33.767Z,2.60
2018-10-07T20:22:00.917Z,1.40
2018-10-07T20:24:28.094Z,3.77
2018-10-07T20:26:55.287Z,3.17
2018-10-07T20:29:22.535Z,2.17
2018-10-07T20:31:49.684Z,2.17
2018-10-07T20:34:16.830Z,1.93
2018-10-07T20:36:43.999Z,1.37
2018-10-07T20:39:11.204Z,3.70
2018-10-07T20:41:39.133Z,2.23
2018-10-07T20:44:06.456Z,2.23
2018-10-07T20:46:33.973Z,3.23
2018-10-07T20:49:01.377Z,3.83
2018-10-07T20:51:28.594Z,4.03
2018-10-07T20:53:55.818Z,4.90
2018-10-07T20:56:23.157Z,9.27
2018-10-07T20:58:50.789Z,4.07
2018-10-07T21:01:18.035Z,3.53
2018-10-07T21:03:45.212Z,3.13
2018-10-07T21:06:12.578Z,2.70
2018-10-07T21:08:39.790Z,2.83
2018-10-07T21:11:06.949Z,2.57
2018-10-07T21:13:34.111Z,4.03
2018-10-07T21:16:01.247Z,5.83
2018-10-07T21:18:28.384Z,3.43
2018-10-07T21:20:55.511Z,3.73
2018-10-07T21:23:22.676Z,3.00
2018-10-07T21:25:49.825Z,4.07
2018-10-07T21:28:17.224Z,2.57
2018-10-07T21:30:44.371Z,3.23
2018-10-07T21:33:11.515Z,5.40
2018-10-07T21:35:38.660Z,5.03
2018-10-07T21:38:05.797Z,6.13
2018-10-07T21:40:32.944Z,5.20
2018-10-07T21:43:00.106Z,7.17
2018-10-07T21:45:27.244Z,4.37
2018-10-07T21:47:54.372Z,4.37
2018-10-07T21:50:21.531Z,5.83
2018-10-07T21:52:48.686Z,6.37
2018-10-07T21:55:15.818Z,4.00
2018-10-07T21:57:42.984Z,5.60
2018-10-07T22:00:10.193Z,5.23
2018-10-07T22:02:37.392Z,5.63
2018-10-07T22:05:04.807Z,6.20
2018-10-07T22:07:31.977Z,4.20
2018-10-07T22:09:59.114Z,6.53
2018-10-07T22:12:26.278Z,6.53
2018-10-07T22:14:53.435Z,5.73
2018-10-07T22:17:20.584Z,5.07
2018-10-07T22:19:47.743Z,5.20
2018-10-07T22:22:14.886Z,6.07
2018-10-07T22:24:42.056Z,6.87
2018-10-07T22:27:09.219Z,6.97
2018-10-07T22:29:36.363Z,6.07
2018-10-07T22:32:03.690Z,5.27
2018-10-07T22:34:30.904Z,5.47
2018-10-07T22:36:58.101Z,4.70
2018-10-07T22:39:25.235Z,6.87
2018-10-07T22:41:52.396Z,6.27
2018-10-07T22:44:19.572Z,5.17
2018-10-07T22:46:46.745Z,4.27
2018-10-07T22:49:13.885Z,3.40
2018-10-07T22:51:41.160Z,5.07
2018-10-07T22:54:08.301Z,4.50
2018-10-07T22:56:35.444Z,5.10
2018-10-07T22:59:02.591Z,4.03
2018-10-07T23:01:29.741Z,3.77
2018-10-07T23:03:56.864Z,4.10
2018-10-07T23:06:24.000Z,5.63
2018-10-07T23:08:51.138Z,4.97
2018-10-07T23:11:18.315Z,4.07
2018-10-07T23:13:45.451Z,3.20
2018-10-07T23:16:12.610Z,4.47
2018-10-07T23:18:39.766Z,3.27
2018-10-07T23:21:06.945Z,7.50
2018-10-07T23:23:34.101Z,4.50
2018-10-07T23:26:01.264Z,5.33
2018-10-07T23:28:29.190Z,4.87
2018-10-07T23:30:56.429Z,5.30
2018-10-07T23:33:23.584Z,7.23
2018-10-07T23:35:50.748Z,5.00
2018-10-07T23:38:17.916Z,4.40
2018-10-07T23:40:46.670Z,4.00
2018-10-07T23:43:13.795Z,5.93
2018-10-07T23:45:40.990Z,4.87
2018-10-07T23:48:08.091Z,7.13
2018-10-07T23:50:35.244Z,4.33
2018-10-07T23:53:02.443Z,6.67
2018-10-07T23:55:29.624Z,4.97
2018-10-07T23:57:56.802Z,4.93
